sensor_id;sensor_type;location;lat;lon;timestamp;P1;durP1;ratioP1;P2;durP2;ratioP2
29452;SDS011;16424;50.956;5.320;2023-07-31T00:00:53;7.95;;;2.83;;
29452;SDS011;16424;50.956;5.320;2023-07-31T00:03:18;13.43;;;3.90;;
29452;SDS011;16424;50.956;5.320;2023-07-31T00:05:44;8.35;;;2.78;;
29452;SDS011;16424;50.956;5.320;2023-07-31T00:08:10;9.68;;;3.35;;
29452;SDS011;16424;50.956;5.320;2023-07-31T00:10:35;10.43;;;3.10;;
29452;SDS011;16424;50.956;5.320;2023-07-31T00:13:01;11.43;;;3.85;;
29452;SDS011;16424;50.956;5.320;2023-07-31T00:15:26;8.38;;;2.67;;
29452;SDS011;16424;50.956;5.320;2023-07-31T00:17:52;12.20;;;3.65;;
29452;SDS011;16424;50.956;5.320;2023-07-31T00:20:18;9.18;;;2.97;;
29452;SDS011;16424;50.956;5.320;2023-07-31T00:22:43;16.20;;;4.40;;
29452;SDS011;16424;50.956;5.320;2023-07-31T00:25:09;10.10;;;3.80;;
29452;SDS011;16424;50.956;5.320;2023-07-31T00:27:35;14.75;;;3.63;;
29452;SDS011;16424;50.956;5.320;2023-07-31T00:30:00;8.77;;;3.33;;
29452;SDS011;16424;50.956;5.320;2023-07-31T00:32:26;11.70;;;4.05;;
29452;SDS011;16424;50.956;5.320;2023-07-31T00:34:51;13.63;;;3.88;;
29452;SDS011;16424;50.956;5.320;2023-07-31T00:37:17;12.18;;;3.58;;
29452;SDS011;16424;50.956;5.320;2023-07-31T00:39:43;11.18;;;3.65;;
29452;SDS011;16424;50.956;5.320;2023-07-31T00:42:08;10.93;;;3.30;;
29452;SDS011;16424;50.956;5.320;2023-07-31T00:44:34;9.70;;;3.22;;
29452;SDS011;16424;50.956;5.320;2023-07-31T00:46:59;12.38;;;3.65;;
29452;SDS011;16424;50.956;5.320;2023-07-31T00:49:26;11.65;;;3.45;;
29452;SDS011;16424;50.956;5.320;2023-07-31T00:51:52;10.73;;;3.38;;
29452;SDS011;16424;50.956;5.320;2023-07-31T00:54:18;8.15;;;3.08;;
29452;SDS011;16424;50.956;5.320;2023-07-31T00:56:47;10.98;;;3.42;;
29452;SDS011;16424;50.956;5.320;2023-07-31T00:59:14;13.30;;;3.40;;
29452;SDS011;16424;50.956;5.320;2023-07-31T01:01:40;11.05;;;3.47;;
29452;SDS011;16424;50.956;5.320;2023-07-31T01:04:05;14.20;;;3.95;;
29452;SDS011;16424;50.956;5.320;2023-07-31T01:12:15;13.95;;;4.05;;
29452;SDS011;16424;50.956;5.320;2023-07-31T01:14:51;14.38;;;3.80;;
29452;SDS011;16424;50.956;5.320;2023-07-31T01:17:26;11.05;;;3.42;;
29452;SDS011;16424;50.956;5.320;2023-07-31T01:19:51;16.52;;;3.20;;
29452;SDS011;16424;50.956;5.320;2023-07-31T01:22:23;13.18;;;3.85;;
29452;SDS011;16424;50.956;5.320;2023-07-31T01:28:04;9.20;;;4.13;;
29452;SDS011;16424;50.956;5.320;2023-07-31T01:30:33;12.90;;;4.07;;
29452;SDS011;16424;50.956;5.320;2023-07-31T01:33:02;8.18;;;3.47;;
29452;SDS011;16424;50.956;5.320;2023-07-31T01:35:33;12.60;;;3.30;;
29452;SDS011;16424;50.956;5.320;2023-07-31T01:37:59;10.68;;;3.40;;
29452;SDS011;16424;50.956;5.320;2023-07-31T01:40:25;10.00;;;3.00;;
29452;SDS011;16424;50.956;5.320;2023-07-31T01:42:51;12.13;;;3.10;;
29452;SDS011;16424;50.956;5.320;2023-07-31T01:45:16;11.70;;;3.10;;
29452;SDS011;16424;50.956;5.320;2023-07-31T01:47:42;13.93;;;3.05;;
29452;SDS011;16424;50.956;5.320;2023-07-31T01:50:08;7.13;;;3.40;;
29452;SDS011;16424;50.956;5.320;2023-07-31T01:52:34;13.38;;;4.18;;
29452;SDS011;16424;50.956;5.320;2023-07-31T01:55:02;11.60;;;3.20;;
29452;SDS011;16424;50.956;5.320;2023-07-31T01:57:28;21.52;;;4.50;;
29452;SDS011;16424;50.956;5.320;2023-07-31T01:59:54;13.55;;;3.83;;
29452;SDS011;16424;50.956;5.320;2023-07-31T02:02:20;9.02;;;3.33;;
29452;SDS011;16424;50.956;5.320;2023-07-31T02:04:45;10.43;;;3.45;;
29452;SDS011;16424;50.956;5.320;2023-07-31T02:07:12;8.27;;;3.40;;
29452;SDS011;16424;50.956;5.320;2023-07-31T02:09:37;15.25;;;3.58;;
29452;SDS011;16424;50.956;5.320;2023-07-31T02:12:03;12.85;;;3.22;;
29452;SDS011;16424;50.956;5.320;2023-07-31T02:14:29;14.75;;;3.47;;
29452;SDS011;16424;50.956;5.320;2023-07-31T02:16:54;10.05;;;3.33;;
29452;SDS011;16424;50.956;5.320;2023-07-31T02:19:20;7.22;;;3.55;;
29452;SDS011;16424;50.956;5.320;2023-07-31T02:21:46;10.32;;;3.38;;
29452;SDS011;16424;50.956;5.320;2023-07-31T02:24:11;13.00;;;3.95;;
29452;SDS011;16424;50.956;5.320;2023-07-31T02:26:37;9.35;;;3.28;;
29452;SDS011;16424;50.956;5.320;2023-07-31T02:29:02;14.20;;;3.92;;
29452;SDS011;16424;50.956;5.320;2023-07-31T02:31:28;10.70;;;3.50;;
29452;SDS011;16424;50.956;5.320;2023-07-31T02:33:54;11.77;;;4.40;;
29452;SDS011;16424;50.956;5.320;2023-07-31T02:36:19;9.85;;;3.38;;
29452;SDS011;16424;50.956;5.320;2023-07-31T02:38:45;8.73;;;3.30;;
29452;SDS011;16424;50.956;5.320;2023-07-31T02:41:11;14.02;;;3.53;;
29452;SDS011;16424;50.956;5.320;2023-07-31T02:43:36;9.25;;;3.83;;
29452;SDS011;16424;50.956;5.320;2023-07-31T02:46:02;10.88;;;3.95;;
29452;SDS011;16424;50.956;5.320;2023-07-31T02:48:28;12.25;;;3.85;;
29452;SDS011;16424;50.956;5.320;2023-07-31T02:50:53;13.70;;;5.03;;
29452;SDS011;16424;50.956;5.320;2023-07-31T02:53:19;6.10;;;3.47;;
29452;SDS011;16424;50.956;5.320;2023-07-31T02:55:45;8.98;;;3.60;;
29452;SDS011;16424;50.956;5.320;2023-07-31T02:58:10;8.60;;;4.00;;
29452;SDS011;16424;50.956;5.320;2023-07-31T03:00:36;17.08;;;4.07;;
29452;SDS011;16424;50.956;5.320;2023-07-31T03:03:07;10.95;;;3.97;;
29452;SDS011;16424;50.956;5.320;2023-07-31T03:05:33;8.85;;;3.80;;
29452;SDS011;16424;50.956;5.320;2023-07-31T03:07:58;11.77;;;4.20;;
29452;SDS011;16424;50.956;5.320;2023-07-31T03:10:24;7.45;;;3.25;;
29452;SDS011;16424;50.956;5.320;2023-07-31T03:12:50;6.57;;;3.38;;
29452;SDS011;16424;50.956;5.320;2023-07-31T03:15:15;8.07;;;4.13;;
29452;SDS011;16424;50.956;5.320;2023-07-31T03:17:41;6.55;;;3.35;;
29452;SDS011;16424;50.956;5.320;2023-07-31T03:20:09;14.70;;;4.30;;
29452;SDS011;16424;50.956;5.320;2023-07-31T03:22:35;9.77;;;3.95;;
29452;SDS011;16424;50.956;5.320;2023-07-31T03:25:02;8.57;;;3.63;;
29452;SDS011;16424;50.956;5.320;2023-07-31T03:27:28;9.90;;;4.18;;
29452;SDS011;16424;50.956;5.320;2023-07-31T03:29:54;10.35;;;3.55;;
29452;SDS011;16424;50.956;5.320;2023-07-31T03:32:19;14.52;;;3.45;;
29452;SDS011;16424;50.956;5.320;2023-07-31T03:34:45;7.95;;;3.35;;
29452;SDS011;16424;50.956;5.320;2023-07-31T03:37:11;5.90;;;3.75;;
29452;SDS011;16424;50.956;5.320;2023-07-31T03:39:36;12.13;;;3.88;;
29452;SDS011;16424;50.956;5.320;2023-07-31T03:42:04;11.57;;;4.22;;
29452;SDS011;16424;50.956;5.320;2023-07-31T03:44:30;5.80;;;3.28;;
29452;SDS011;16424;50.956;5.320;2023-07-31T03:46:56;6.43;;;2.88;;
29452;SDS011;16424;50.956;5.320;2023-07-31T03:49:22;6.63;;;2.95;;
29452;SDS011;16424;50.956;5.320;2023-07-31T03:51:50;9.57;;;3.22;;
29452;SDS011;16424;50.956;5.320;2023-07-31T03:54:16;9.98;;;3.55;;
29452;SDS011;16424;50.956;5.320;2023-07-31T03:56:41;8.82;;;3.22;;
29452;SDS011;16424;50.956;5.320;2023-07-31T03:59:07;7.90;;;3.13;;
29452;SDS011;16424;50.956;5.320;2023-07-31T04:01:33;9.80;;;3.65;;
29452;SDS011;16424;50.956;5.320;2023-07-31T04:03:58;11.63;;;3.65;;
29452;SDS011;16424;50.956;5.320;2023-07-31T04:06:24;9.95;;;3.15;;
29452;SDS011;16424;50.956;5.320;2023-07-31T04:08:49;6.53;;;2.85;;
29452;SDS011;16424;50.956;5.320;2023-07-31T04:11:15;5.68;;;3.25;;
29452;SDS011;16424;50.956;5.320;2023-07-31T04:13:41;9.77;;;3.30;;
29452;SDS011;16424;50.956;5.320;2023-07-31T04:16:09;6.13;;;3.05;;
29452;SDS011;16424;50.956;5.320;2023-07-31T04:18:35;9.95;;;3.03;;
29452;SDS011;16424;50.956;5.320;2023-07-31T04:21:02;5.90;;;2.60;;
29452;SDS011;16424;50.956;5.320;2023-07-31T04:23:28;7.95;;;2.83;;
29452;SDS011;16424;50.956;5.320;2023-07-31T04:25:53;8.45;;;3.10;;
29452;SDS011;16424;50.956;5.320;2023-07-31T04:28:19;6.13;;;3.50;;
29452;SDS011;16424;50.956;5.320;2023-07-31T04:30:45;5.97;;;3.33;;
29452;SDS011;16424;50.956;5.320;2023-07-31T04:33:10;7.03;;;2.70;;
29452;SDS011;16424;50.956;5.320;2023-07-31T04:35:36;7.07;;;2.95;;
29452;SDS011;16424;50.956;5.320;2023-07-31T04:38:01;6.97;;;3.13;;
29452;SDS011;16424;50.956;5.320;2023-07-31T04:40:27;7.85;;;3.25;;
29452;SDS011;16424;50.956;5.320;2023-07-31T04:42:53;7.57;;;2.75;;
29452;SDS011;16424;50.956;5.320;2023-07-31T04:45:18;9.10;;;2.97;;
29452;SDS011;16424;50.956;5.320;2023-07-31T04:47:44;10.63;;;2.95;;
29452;SDS011;16424;50.956;5.320;2023-07-31T04:50:10;5.45;;;2.97;;
29452;SDS011;16424;50.956;5.320;2023-07-31T04:52:35;8.38;;;3.10;;
29452;SDS011;16424;50.956;5.320;2023-07-31T04:55:01;11.90;;;3.35;;
29452;SDS011;16424;50.956;5.320;2023-07-31T04:57:27;8.27;;;3.17;;
29452;SDS011;16424;50.956;5.320;2023-07-31T04:59:53;9.00;;;2.90;;
29452;SDS011;16424;50.956;5.320;2023-07-31T05:02:19;7.95;;;3.30;;
29452;SDS011;16424;50.956;5.320;2023-07-31T05:04:44;7.30;;;2.58;;
29452;SDS011;16424;50.956;5.320;2023-07-31T05:07:10;5.00;;;2.95;;
29452;SDS011;16424;50.956;5.320;2023-07-31T05:09:36;5.93;;;2.90;;
29452;SDS011;16424;50.956;5.320;2023-07-31T05:12:02;9.98;;;3.15;;
29452;SDS011;16424;50.956;5.320;2023-07-31T05:14:29;11.90;;;3.13;;
29452;SDS011;16424;50.956;5.320;2023-07-31T05:16:55;10.02;;;3.05;;
29452;SDS011;16424;50.956;5.320;2023-07-31T05:19:23;9.55;;;2.95;;
29452;SDS011;16424;50.956;5.320;2023-07-31T05:21:48;7.45;;;2.78;;
29452;SDS011;16424;50.956;5.320;2023-07-31T05:24:14;6.18;;;2.83;;
29452;SDS011;16424;50.956;5.320;2023-07-31T05:26:40;11.40;;;3.10;;
29452;SDS011;16424;50.956;5.320;2023-07-31T05:29:05;10.43;;;4.03;;
29452;SDS011;16424;50.956;5.320;2023-07-31T05:31:31;7.07;;;3.33;;
29452;SDS011;16424;50.956;5.320;2023-07-31T05:33:57;8.00;;;3.00;;
29452;SDS011;16424;50.956;5.320;2023-07-31T05:36:23;6.82;;;3.13;;
29452;SDS011;16424;50.956;5.320;2023-07-31T05:38:49;14.27;;;3.60;;
29452;SDS011;16424;50.956;5.320;2023-07-31T05:41:14;10.02;;;3.35;;
29452;SDS011;16424;50.956;5.320;2023-07-31T05:43:41;6.65;;;3.25;;
29452;SDS011;16424;50.956;5.320;2023-07-31T05:46:08;9.88;;;3.03;;
29452;SDS011;16424;50.956;5.320;2023-07-31T05:48:34;8.20;;;2.90;;
29452;SDS011;16424;50.956;5.320;2023-07-31T05:51:00;7.47;;;3.22;;
29452;SDS011;16424;50.956;5.320;2023-07-31T05:53:25;10.10;;;3.13;;
29452;SDS011;16424;50.956;5.320;2023-07-31T05:55:51;7.03;;;3.13;;
29452;SDS011;16424;50.956;5.320;2023-07-31T05:58:17;8.90;;;3.00;;
29452;SDS011;16424;50.956;5.320;2023-07-31T06:00:42;7.75;;;2.47;;
29452;SDS011;16424;50.956;5.320;2023-07-31T06:03:08;10.32;;;3.33;;
29452;SDS011;16424;50.956;5.320;2023-07-31T06:05:34;4.88;;;3.30;;
29452;SDS011;16424;50.956;5.320;2023-07-31T06:07:59;8.68;;;3.13;;
29452;SDS011;16424;50.956;5.320;2023-07-31T06:10:25;6.35;;;3.22;;
29452;SDS011;16424;50.956;5.320;2023-07-31T06:12:51;8.77;;;3.28;;
29452;SDS011;16424;50.956;5.320;2023-07-31T06:15:17;8.05;;;3.00;;
29452;SDS011;16424;50.956;5.320;2023-07-31T06:17:44;7.53;;;3.13;;
29452;SDS011;16424;50.956;5.320;2023-07-31T06:20:10;8.10;;;2.50;;
29452;SDS011;16424;50.956;5.320;2023-07-31T06:22:35;9.30;;;3.20;;
29452;SDS011;16424;50.956;5.320;2023-07-31T06:25:01;6.10;;;2.50;;
29452;SDS011;16424;50.956;5.320;2023-07-31T06:27:27;5.50;;;2.70;;
29452;SDS011;16424;50.956;5.320;2023-07-31T06:29:53;5.47;;;2.88;;
29452;SDS011;16424;50.956;5.320;2023-07-31T06:32:18;5.47;;;2.88;;
29452;SDS011;16424;50.956;5.320;2023-07-31T06:34:44;6.55;;;2.85;;
29452;SDS011;16424;50.956;5.320;2023-07-31T06:37:10;8.30;;;3.13;;
29452;SDS011;16424;50.956;5.320;2023-07-31T06:39:35;7.97;;;3.10;;
29452;SDS011;16424;50.956;5.320;2023-07-31T06:42:02;6.10;;;2.95;;
29452;SDS011;16424;50.956;5.320;2023-07-31T06:44:28;8.65;;;3.13;;
29452;SDS011;16424;50.956;5.320;2023-07-31T06:46:53;7.13;;;3.72;;
29452;SDS011;16424;50.956;5.320;2023-07-31T06:49:19;8.32;;;3.03;;
29452;SDS011;16424;50.956;5.320;2023-07-31T06:51:45;9.15;;;3.05;;
29452;SDS011;16424;50.956;5.320;2023-07-31T06:54:10;7.53;;;2.67;;
29452;SDS011;16424;50.956;5.320;2023-07-31T06:56:36;6.60;;;2.67;;
29452;SDS011;16424;50.956;5.320;2023-07-31T06:59:01;8.20;;;2.55;;
29452;SDS011;16424;50.956;5.320;2023-07-31T07:01:28;7.32;;;3.00;;
29452;SDS011;16424;50.956;5.320;2023-07-31T07:03:53;13.02;;;3.20;;
29452;SDS011;16424;50.956;5.320;2023-07-31T07:06:19;9.23;;;3.17;;
29452;SDS011;16424;50.956;5.320;2023-07-31T07:08:45;7.20;;;2.83;;
29452;SDS011;16424;50.956;5.320;2023-07-31T07:11:10;10.60;;;3.22;;
29452;SDS011;16424;50.956;5.320;2023-07-31T07:13:36;8.52;;;2.55;;
29452;SDS011;16424;50.956;5.320;2023-07-31T07:16:02;7.57;;;2.53;;
29452;SDS011;16424;50.956;5.320;2023-07-31T07:18:27;8.30;;;3.08;;
29452;SDS011;16424;50.956;5.320;2023-07-31T07:20:53;6.50;;;2.45;;
29452;SDS011;16424;50.956;5.320;2023-07-31T07:23:19;6.38;;;2.58;;
29452;SDS011;16424;50.956;5.320;2023-07-31T07:25:46;6.97;;;3.08;;
29452;SDS011;16424;50.956;5.320;2023-07-31T07:28:12;4.45;;;2.63;;
29452;SDS011;16424;50.956;5.320;2023-07-31T07:30:38;8.43;;;3.50;;
29452;SDS011;16424;50.956;5.320;2023-07-31T07:33:04;9.63;;;3.10;;
29452;SDS011;16424;50.956;5.320;2023-07-31T07:35:32;8.55;;;2.58;;
29452;SDS011;16424;50.956;5.320;2023-07-31T07:37:59;4.28;;;2.50;;
29452;SDS011;16424;50.956;5.320;2023-07-31T07:40:25;8.52;;;2.67;;
29452;SDS011;16424;50.956;5.320;2023-07-31T07:42:51;10.95;;;3.70;;
29452;SDS011;16424;50.956;5.320;2023-07-31T07:45:17;9.02;;;2.85;;
29452;SDS011;16424;50.956;5.320;2023-07-31T07:47:43;6.15;;;2.72;;
29452;SDS011;16424;50.956;5.320;2023-07-31T07:50:08;6.68;;;3.38;;
29452;SDS011;16424;50.956;5.320;2023-07-31T07:52:34;7.60;;;2.90;;
29452;SDS011;16424;50.956;5.320;2023-07-31T07:55:00;6.65;;;2.80;;
29452;SDS011;16424;50.956;5.320;2023-07-31T07:57:26;10.73;;;3.13;;
29452;SDS011;16424;50.956;5.320;2023-07-31T07:59:52;8.38;;;2.78;;
29452;SDS011;16424;50.956;5.320;2023-07-31T08:02:18;7.72;;;2.47;;
29452;SDS011;16424;50.956;5.320;2023-07-31T08:04:43;6.43;;;2.63;;
29452;SDS011;16424;50.956;5.320;2023-07-31T08:07:12;7.03;;;2.60;;
29452;SDS011;16424;50.956;5.320;2023-07-31T08:09:38;10.23;;;2.35;;
29452;SDS011;16424;50.956;5.320;2023-07-31T08:12:04;6.43;;;2.38;;
29452;SDS011;16424;50.956;5.320;2023-07-31T08:14:30;5.85;;;2.60;;
29452;SDS011;16424;50.956;5.320;2023-07-31T08:16:56;6.22;;;2.67;;
29452;SDS011;16424;50.956;5.320;2023-07-31T08:19:22;3.83;;;2.22;;
29452;SDS011;16424;50.956;5.320;2023-07-31T08:21:47;5.13;;;2.17;;
29452;SDS011;16424;50.956;5.320;2023-07-31T08:24:13;6.78;;;2.53;;
29452;SDS011;16424;50.956;5.320;2023-07-31T08:26:39;6.72;;;2.50;;
29452;SDS011;16424;50.956;5.320;2023-07-31T08:29:04;6.15;;;2.47;;
29452;SDS011;16424;50.956;5.320;2023-07-31T08:31:30;6.18;;;2.47;;
29452;SDS011;16424;50.956;5.320;2023-07-31T08:33:56;7.70;;;2.47;;
29452;SDS011;16424;50.956;5.320;2023-07-31T08:36:21;7.47;;;3.35;;
29452;SDS011;16424;50.956;5.320;2023-07-31T08:38:47;9.73;;;2.85;;
29452;SDS011;16424;50.956;5.320;2023-07-31T08:41:13;4.82;;;2.60;;
29452;SDS011;16424;50.956;5.320;2023-07-31T08:43:39;12.75;;;3.05;;
29452;SDS011;16424;50.956;5.320;2023-07-31T08:46:05;4.13;;;2.55;;
29452;SDS011;16424;50.956;5.320;2023-07-31T08:48:31;10.65;;;3.08;;
29452;SDS011;16424;50.956;5.320;2023-07-31T08:51:00;4.75;;;2.50;;
29452;SDS011;16424;50.956;5.320;2023-07-31T08:53:26;4.93;;;2.40;;
29452;SDS011;16424;50.956;5.320;2023-07-31T08:55:52;7.85;;;2.72;;
29452;SDS011;16424;50.956;5.320;2023-07-31T08:58:19;11.38;;;2.75;;
29452;SDS011;16424;50.956;5.320;2023-07-31T09:00:48;6.40;;;2.45;;
29452;SDS011;16424;50.956;5.320;2023-07-31T09:03:16;9.88;;;2.92;;
29452;SDS011;16424;50.956;5.320;2023-07-31T09:05:44;7.50;;;2.58;;
29452;SDS011;16424;50.956;5.320;2023-07-31T09:08:12;6.55;;;3.22;;
29452;SDS011;16424;50.956;5.320;2023-07-31T09:10:42;8.25;;;2.58;;
29452;SDS011;16424;50.956;5.320;2023-07-31T09:13:10;4.80;;;2.10;;
29452;SDS011;16424;50.956;5.320;2023-07-31T09:15:36;5.10;;;2.40;;
29452;SDS011;16424;50.956;5.320;2023-07-31T09:18:03;4.68;;;2.47;;
29452;SDS011;16424;50.956;5.320;2023-07-31T09:20:30;4.60;;;2.15;;
29452;SDS011;16424;50.956;5.320;2023-07-31T09:23:00;6.18;;;2.20;;
29452;SDS011;16424;50.956;5.320;2023-07-31T09:25:41;4.63;;;2.30;;
29452;SDS011;16424;50.956;5.320;2023-07-31T09:28:11;6.15;;;2.15;;
29452;SDS011;16424;50.956;5.320;2023-07-31T09:30:50;3.67;;;2.00;;
29452;SDS011;16424;50.956;5.320;2023-07-31T09:33:16;5.78;;;2.00;;
29452;SDS011;16424;50.956;5.320;2023-07-31T09:35:43;2.97;;;1.98;;
29452;SDS011;16424;50.956;5.320;2023-07-31T09:38:13;4.15;;;1.60;;
29452;SDS011;16424;50.956;5.320;2023-07-31T09:43:20;5.18;;;2.08;;
29452;SDS011;16424;50.956;5.320;2023-07-31T09:45:47;3.42;;;1.63;;
29452;SDS011;16424;50.956;5.320;2023-07-31T09:50:47;1.88;;;1.30;;
29452;SDS011;16424;50.956;5.320;2023-07-31T09:53:13;2.75;;;1.70;;
29452;SDS011;16424;50.956;5.320;2023-07-31T10:02:05;1.77;;;1.23;;
29452;SDS011;16424;50.956;5.320;2023-07-31T10:04:43;4.95;;;1.60;;
29452;SDS011;16424;50.956;5.320;2023-07-31T10:07:19;4.50;;;1.58;;
29452;SDS011;16424;50.956;5.320;2023-07-31T10:09:53;2.10;;;1.53;;
29452;SDS011;16424;50.956;5.320;2023-07-31T10:12:25;4.13;;;1.63;;
29452;SDS011;16424;50.956;5.320;2023-07-31T10:14:58;2.38;;;1.33;;
29452;SDS011;16424;50.956;5.320;2023-07-31T10:17:33;4.53;;;2.38;;
29452;SDS011;16424;50.956;5.320;2023-07-31T10:20:09;2.67;;;1.80;;
29452;SDS011;16424;50.956;5.320;2023-07-31T10:22:50;4.88;;;1.88;;
29452;SDS011;16424;50.956;5.320;2023-07-31T10:25:27;3.63;;;1.65;;
29452;SDS011;16424;50.956;5.320;2023-07-31T10:27:58;5.57;;;1.90;;
29452;SDS011;16424;50.956;5.320;2023-07-31T10:30:31;5.78;;;2.22;;
29452;SDS011;16424;50.956;5.320;2023-07-31T10:33:02;4.00;;;1.85;;
29452;SDS011;16424;50.956;5.320;2023-07-31T10:35:35;4.28;;;2.60;;
29452;SDS011;16424;50.956;5.320;2023-07-31T10:38:12;3.90;;;2.00;;
29452;SDS011;16424;50.956;5.320;2023-07-31T10:40:44;5.85;;;2.10;;
29452;SDS011;16424;50.956;5.320;2023-07-31T10:43:26;5.18;;;2.20;;
29452;SDS011;16424;50.956;5.320;2023-07-31T10:45:59;4.85;;;2.00;;
29452;SDS011;16424;50.956;5.320;2023-07-31T10:48:47;5.30;;;2.45;;
29452;SDS011;16424;50.956;5.320;2023-07-31T10:51:36;9.43;;;2.67;;
29452;SDS011;16424;50.956;5.320;2023-07-31T10:54:13;7.15;;;2.95;;
29452;SDS011;16424;50.956;5.320;2023-07-31T10:56:47;3.70;;;2.17;;
29452;SDS011;16424;50.956;5.320;2023-07-31T10:59:15;5.55;;;2.38;;
29452;SDS011;16424;50.956;5.320;2023-07-31T11:01:56;7.40;;;2.50;;
29452;SDS011;16424;50.956;5.320;2023-07-31T11:04:27;8.80;;;3.53;;
29452;SDS011;16424;50.956;5.320;2023-07-31T11:06:56;6.25;;;2.80;;
29452;SDS011;16424;50.956;5.320;2023-07-31T11:09:32;5.40;;;2.67;;
29452;SDS011;16424;50.956;5.320;2023-07-31T11:11:59;10.38;;;3.10;;
29452;SDS011;16424;50.956;5.320;2023-07-31T11:14:25;9.65;;;3.70;;
29452;SDS011;16424;50.956;5.320;2023-07-31T11:16:51;5.75;;;2.95;;
29452;SDS011;16424;50.956;5.320;2023-07-31T11:19:24;6.55;;;2.75;;
29452;SDS011;16424;50.956;5.320;2023-07-31T11:21:52;6.82;;;3.30;;
29452;SDS011;16424;50.956;5.320;2023-07-31T11:24:18;6.15;;;3.05;;
29452;SDS011;16424;50.956;5.320;2023-07-31T11:26:49;5.75;;;2.63;;
29452;SDS011;16424;50.956;5.320;2023-07-31T11:29:19;7.38;;;3.00;;
29452;SDS011;16424;50.956;5.320;2023-07-31T11:31:45;9.35;;;3.03;;
29452;SDS011;16424;50.956;5.320;2023-07-31T11:34:13;4.22;;;2.80;;
29452;SDS011;16424;50.956;5.320;2023-07-31T11:36:39;5.75;;;3.45;;
29452;SDS011;16424;50.956;5.320;2023-07-31T11:39:05;4.32;;;2.58;;
29452;SDS011;16424;50.956;5.320;2023-07-31T11:41:33;5.25;;;2.78;;
29452;SDS011;16424;50.956;5.320;2023-07-31T11:43:59;6.97;;;2.92;;
29452;SDS011;16424;50.956;5.320;2023-07-31T11:46:27;9.15;;;2.97;;
29452;SDS011;16424;50.956;5.320;2023-07-31T11:48:59;8.43;;;2.88;;
29452;SDS011;16424;50.956;5.320;2023-07-31T11:51:25;7.72;;;2.67;;
29452;SDS011;16424;50.956;5.320;2023-07-31T11:53:55;8.25;;;2.80;;
29452;SDS011;16424;50.956;5.320;2023-07-31T11:56:23;6.38;;;2.30;;
29452;SDS011;16424;50.956;5.320;2023-07-31T11:58:52;7.60;;;3.03;;
29452;SDS011;16424;50.956;5.320;2023-07-31T12:01:20;10.57;;;2.90;;
29452;SDS011;16424;50.956;5.320;2023-07-31T12:03:47;8.05;;;3.03;;
29452;SDS011;16424;50.956;5.320;2023-07-31T12:06:15;5.68;;;2.85;;
29452;SDS011;16424;50.956;5.320;2023-07-31T12:08:41;4.18;;;2.55;;
29452;SDS011;16424;50.956;5.320;2023-07-31T12:11:08;9.55;;;2.83;;
29452;SDS011;16424;50.956;5.320;2023-07-31T12:13:38;7.60;;;2.80;;
29452;SDS011;16424;50.956;5.320;2023-07-31T12:16:04;5.22;;;2.47;;
29452;SDS011;16424;50.956;5.320;2023-07-31T12:18:34;6.15;;;2.80;;
29452;SDS011;16424;50.956;5.320;2023-07-31T12:21:02;4.53;;;2.70;;
29452;SDS011;16424;50.956;5.320;2023-07-31T12:23:31;6.80;;;2.80;;
29452;SDS011;16424;50.956;5.320;2023-07-31T12:26:07;9.27;;;3.22;;
29452;SDS011;16424;50.956;5.320;2023-07-31T12:28:46;6.85;;;2.90;;
29452;SDS011;16424;50.956;5.320;2023-07-31T12:31:15;6.70;;;2.95;;
29452;SDS011;16424;50.956;5.320;2023-07-31T12:33:47;4.60;;;2.63;;
29452;SDS011;16424;50.956;5.320;2023-07-31T12:36:20;6.13;;;3.08;;
29452;SDS011;16424;50.956;5.320;2023-07-31T12:38:49;6.57;;;3.08;;
29452;SDS011;16424;50.956;5.320;2023-07-31T12:41:16;7.15;;;2.72;;
29452;SDS011;16424;50.956;5.320;2023-07-31T12:43:43;7.75;;;2.90;;
29452;SDS011;16424;50.956;5.320;2023-07-31T12:46:09;4.90;;;2.45;;
29452;SDS011;16424;50.956;5.320;2023-07-31T12:48:36;7.00;;;2.15;;
29452;SDS011;16424;50.956;5.320;2023-07-31T12:51:03;5.15;;;2.80;;
29452;SDS011;16424;50.956;5.320;2023-07-31T12:53:29;4.82;;;2.42;;
29452;SDS011;16424;50.956;5.320;2023-07-31T12:55:55;5.40;;;2.47;;
29452;SDS011;16424;50.956;5.320;2023-07-31T12:58:21;4.93;;;2.22;;
29452;SDS011;16424;50.956;5.320;2023-07-31T13:00:47;5.35;;;2.58;;
29452;SDS011;16424;50.956;5.320;2023-07-31T13:03:13;5.82;;;2.78;;
29452;SDS011;16424;50.956;5.320;2023-07-31T13:05:39;7.88;;;3.10;;
29452;SDS011;16424;50.956;5.320;2023-07-31T13:08:05;9.30;;;2.90;;
29452;SDS011;16424;50.956;5.320;2023-07-31T13:10:31;6.80;;;2.83;;
29452;SDS011;16424;50.956;5.320;2023-07-31T13:12:56;6.68;;;3.00;;
29452;SDS011;16424;50.956;5.320;2023-07-31T13:15:22;5.25;;;2.65;;
29452;SDS011;16424;50.956;5.320;2023-07-31T13:17:48;6.30;;;3.30;;
29452;SDS011;16424;50.956;5.320;2023-07-31T13:20:14;4.93;;;2.80;;
29452;SDS011;16424;50.956;5.320;2023-07-31T13:22:40;10.30;;;3.08;;
29452;SDS011;16424;50.956;5.320;2023-07-31T13:25:06;7.95;;;3.53;;
29452;SDS011;16424;50.956;5.320;2023-07-31T13:27:32;7.57;;;2.33;;
29452;SDS011;16424;50.956;5.320;2023-07-31T13:29:57;5.97;;;3.13;;
29452;SDS011;16424;50.956;5.320;2023-07-31T13:32:23;9.75;;;2.97;;
29452;SDS011;16424;50.956;5.320;2023-07-31T13:34:49;6.95;;;2.95;;
29452;SDS011;16424;50.956;5.320;2023-07-31T13:37:15;9.80;;;3.28;;
29452;SDS011;16424;50.956;5.320;2023-07-31T13:39:42;6.88;;;3.35;;
29452;SDS011;16424;50.956;5.320;2023-07-31T13:42:08;12.20;;;3.60;;
29452;SDS011;16424;50.956;5.320;2023-07-31T13:44:40;7.13;;;3.38;;
29452;SDS011;16424;50.956;5.320;2023-07-31T13:47:07;7.30;;;3.47;;
29452;SDS011;16424;50.956;5.320;2023-07-31T13:49:33;4.75;;;2.60;;
29452;SDS011;16424;50.956;5.320;2023-07-31T13:52:00;10.77;;;3.60;;
29452;SDS011;16424;50.956;5.320;2023-07-31T13:54:26;7.65;;;3.70;;
29452;SDS011;16424;50.956;5.320;2023-07-31T13:56:53;7.63;;;3.30;;
29452;SDS011;16424;50.956;5.320;2023-07-31T13:59:19;8.20;;;3.45;;
29452;SDS011;16424;50.956;5.320;2023-07-31T14:01:45;6.65;;;2.88;;
29452;SDS011;16424;50.956;5.320;2023-07-31T14:04:12;8.93;;;3.13;;
29452;SDS011;16424;50.956;5.320;2023-07-31T14:06:38;5.28;;;3.10;;
29452;SDS011;16424;50.956;5.320;2023-07-31T14:09:04;6.88;;;2.72;;
29452;SDS011;16424;50.956;5.320;2023-07-31T14:11:31;7.95;;;3.20;;
29452;SDS011;16424;50.956;5.320;2023-07-31T14:13:57;8.60;;;3.53;;
29452;SDS011;16424;50.956;5.320;2023-07-31T14:16:27;7.43;;;3.53;;
29452;SDS011;16424;50.956;5.320;2023-07-31T14:18:53;10.63;;;3.65;;
29452;SDS011;16424;50.956;5.320;2023-07-31T14:21:19;9.40;;;3.47;;
29452;SDS011;16424;50.956;5.320;2023-07-31T14:23:45;9.07;;;2.95;;
29452;SDS011;16424;50.956;5.320;2023-07-31T14:26:11;7.72;;;2.83;;
29452;SDS011;16424;50.956;5.320;2023-07-31T14:28:37;7.28;;;3.03;;
29452;SDS011;16424;50.956;5.320;2023-07-31T14:31:06;6.18;;;2.90;;
29452;SDS011;16424;50.956;5.320;2023-07-31T14:33:38;7.03;;;2.45;;
29452;SDS011;16424;50.956;5.320;2023-07-31T14:36:07;4.90;;;2.35;;
29452;SDS011;16424;50.956;5.320;2023-07-31T14:38:39;13.10;;;2.95;;
29452;SDS011;16424;50.956;5.320;2023-07-31T14:41:16;7.28;;;2.95;;
29452;SDS011;16424;50.956;5.320;2023-07-31T14:43:55;5.65;;;2.58;;
29452;SDS011;16424;50.956;5.320;2023-07-31T14:46:30;4.75;;;2.58;;
29452;SDS011;16424;50.956;5.320;2023-07-31T14:48:56;5.55;;;2.80;;
29452;SDS011;16424;50.956;5.320;2023-07-31T14:51:28;5.20;;;2.25;;
29452;SDS011;16424;50.956;5.320;2023-07-31T14:53:54;3.50;;;2.03;;
29452;SDS011;16424;50.956;5.320;2023-07-31T14:56:21;5.30;;;2.33;;
29452;SDS011;16424;50.956;5.320;2023-07-31T14:58:46;2.95;;;1.90;;
29452;SDS011;16424;50.956;5.320;2023-07-31T15:01:12;4.10;;;1.42;;
29452;SDS011;16424;50.956;5.320;2023-07-31T15:03:38;3.55;;;1.70;;
29452;SDS011;16424;50.956;5.320;2023-07-31T15:06:04;2.38;;;1.40;;